createdAt,value
2018-12-11T00:00:57.266Z,102149.78
2018-12-11T00:03:25.084Z,102143.36
2018-12-11T00:05:52.851Z,102148.76
2018-12-11T00:08:20.675Z,102148.75
2018-12-11T00:10:48.512Z,102158.73
2018-12-11T00:13:16.285Z,102152.06
2018-12-11T00:15:44.015Z,102163.14
2018-12-11T00:18:11.808Z,102154.72
2018-12-11T00:20:39.593Z,102157.12
2018-12-11T00:23:07.377Z,102156.44
2018-12-11T00:25:35.152Z,102168.82
2018-12-11T00:28:02.959Z,102169.11
2018-12-11T00:30:30.777Z,102151.37
2018-12-11T00:32:58.502Z,102169.84
2018-12-11T00:35:26.310Z,102152.71
2018-12-11T00:37:54.053Z,102143.48
2018-12-11T00:40:21.798Z,102145.33
2018-12-11T00:42:49.572Z,102141.11
2018-12-11T00:45:17.333Z,102142.42
2018-12-11T00:47:45.106Z,102143.32
2018-12-11T00:50:12.861Z,102137.39
2018-12-11T00:52:40.649Z,102141.31
2018-12-11T00:55:08.427Z,102135.27
2018-12-11T00:57:36.184Z,102137.68
2018-12-11T01:00:06.065Z,102137.27
2018-12-11T01:02:33.877Z,102131.06
2018-12-11T01:05:01.620Z,102137.06
2018-12-11T01:07:29.372Z,102143.61
2018-12-11T01:09:57.101Z,102156.27
2018-12-11T01:12:24.828Z,102160.38
2018-12-11T01:14:52.577Z,102170.63
2018-12-11T01:17:20.309Z,102150.22
2018-12-11T01:19:48.125Z,102149.72
2018-12-11T01:22:15.911Z,102160.86
2018-12-11T01:24:43.744Z,102165.12
2018-12-11T01:27:11.505Z,102162.50
2018-12-11T01:29:39.286Z,102168.75
2018-12-11T01:32:07.004Z,102170.41
2018-12-11T01:34:34.712Z,102163.19
2018-12-11T01:37:02.449Z,102165.86
2018-12-11T01:39:30.221Z,102159.77
2018-12-11T01:41:57.929Z,102163.62
2018-12-11T01:44:25.676Z,102158.16
2018-12-11T01:46:53.457Z,102163.73
2018-12-11T01:49:21.170Z,102158.16
2018-12-11T01:51:48.986Z,102154.46
2018-12-11T01:54:16.719Z,102166.64
2018-12-11T01:56:44.553Z,102158.78
2018-12-11T01:59:12.285Z,102169.17
2018-12-11T02:01:40.021Z,102165.41
2018-12-11T02:04:07.804Z,102159.19
2018-12-11T02:06:35.553Z,102161.20
2018-12-11T02:09:04.965Z,102159.42
2018-12-11T02:11:33.224Z,102164.16
2018-12-11T02:14:00.980Z,102169.50
2018-12-11T02:16:28.769Z,102173.02
2018-12-11T02:18:56.538Z,102163.59
2018-12-11T02:21:24.306Z,102167.03
2018-12-11T02:23:52.049Z,102167.16
2018-12-11T02:26:19.894Z,102169.30
2018-12-11T02:28:47.616Z,102187.30
2018-12-11T02:31:15.440Z,102194.28
2018-12-11T02:33:43.175Z,102193.59
2018-12-11T02:36:10.931Z,102184.07
2018-12-11T02:38:38.710Z,102229.02
2018-12-11T02:41:06.880Z,102210.70
2018-12-11T02:43:34.689Z,102219.23
2018-12-11T02:46:02.443Z,102195.96
2018-12-11T02:48:30.229Z,102181.51
2018-12-11T02:50:58.026Z,102183.13
2018-12-11T02:53:25.803Z,102172.12
2018-12-11T02:55:53.586Z,102180.17
2018-12-11T02:58:21.344Z,102166.46
2018-12-11T03:00:49.108Z,102163.47
2018-12-11T03:03:16.874Z,102161.17
2018-12-11T03:05:44.611Z,102165.84
2018-12-11T03:08:12.385Z,102178.80
2018-12-11T03:10:40.170Z,102183.95
2018-12-11T03:13:07.976Z,102195.34
2018-12-11T03:15:35.731Z,102193.41
2018-12-11T03:18:03.507Z,102189.22
2018-12-11T03:20:31.263Z,102179.67
2018-12-11T03:22:59.028Z,102180.45
2018-12-11T03:25:26.782Z,102181.84
2018-12-11T03:27:54.513Z,102193.91
2018-12-11T03:30:22.281Z,102186.70
2018-12-11T03:32:50.017Z,102180.23
2018-12-11T03:35:17.810Z,102168.41
2018-12-11T03:37:45.563Z,102174.34
2018-12-11T03:40:13.572Z,102170.20
2018-12-11T03:42:41.348Z,102164.10
2018-12-11T03:45:09.265Z,102167.58
2018-12-11T03:47:37.368Z,102172.69
2018-12-11T03:50:05.488Z,102169.58
2018-12-11T03:52:33.292Z,102174.33
2018-12-11T03:55:01.089Z,102170.28
2018-12-11T03:57:28.858Z,102168.27
2018-12-11T03:59:56.689Z,102178.79
2018-12-11T04:02:24.528Z,102173.03
2018-12-11T04:04:52.302Z,102176.81
2018-12-11T04:07:20.086Z,102174.59
2018-12-11T04:09:47.837Z,102189.66
2018-12-11T04:12:15.633Z,102197.94
2018-12-11T04:14:43.725Z,102201.43
2018-12-11T04:17:11.527Z,102190.91
2018-12-11T04:19:39.309Z,102180.45
2018-12-11T04:22:07.121Z,102180.73
2018-12-11T04:24:34.888Z,102182.94
2018-12-11T04:27:02.687Z,102184.14
2018-12-11T04:29:30.409Z,102185.61
2018-12-11T04:31:58.121Z,102190.98
2018-12-11T04:34:25.828Z,102195.77
2018-12-11T04:36:53.589Z,102193.59
2018-12-11T04:39:21.397Z,102194.15
2018-12-11T04:41:49.176Z,102194.97
2018-12-11T04:44:16.907Z,102196.00
2018-12-11T04:46:44.700Z,102204.17
2018-12-11T04:49:12.516Z,102207.00
2018-12-11T04:51:40.303Z,102215.88
2018-12-11T04:54:08.090Z,102208.84
2018-12-11T04:56:35.830Z,102206.10
2018-12-11T04:59:04.664Z,102216.68
2018-12-11T05:01:32.484Z,102215.25
2018-12-11T05:04:00.326Z,102226.79
2018-12-11T05:06:28.067Z,102220.26
2018-12-11T05:08:55.844Z,102212.20
2018-12-11T05:11:23.633Z,102214.47
2018-12-11T05:13:51.361Z,102211.67
2018-12-11T05:16:19.107Z,102210.62
2018-12-11T05:18:46.849Z,102217.80
2018-12-11T05:21:14.658Z,102219.08
2018-12-11T05:23:42.498Z,102215.50
2018-12-11T05:26:10.274Z,102200.60
2018-12-11T05:28:38.062Z,102189.47
2018-12-11T05:31:05.977Z,102189.33
2018-12-11T05:33:33.738Z,102199.09
2018-12-11T05:36:01.514Z,102199.56
2018-12-11T05:38:29.333Z,102194.27
2018-12-11T05:40:57.095Z,102190.91
2018-12-11T05:43:24.857Z,102194.56
2018-12-11T05:45:52.600Z,102190.70
2018-12-11T05:48:20.416Z,102195.09
2018-12-11T05:50:48.190Z,102210.30
2018-12-11T05:53:15.959Z,102204.05
2018-12-11T05:55:43.714Z,102195.17
2018-12-11T05:58:11.455Z,102191.39
2018-12-11T06:00:39.217Z,102199.42
2018-12-11T06:03:06.989Z,102193.91
2018-12-11T06:05:34.764Z,102197.36
2018-12-11T06:08:02.890Z,102190.42
2018-12-11T06:10:30.733Z,102193.38
2018-12-11T06:12:58.506Z,102198.67
2018-12-11T06:15:26.273Z,102203.00
2018-12-11T06:17:54.028Z,102208.28
2018-12-11T06:20:21.813Z,102203.75
2018-12-11T06:22:49.623Z,102210.36
2018-12-11T06:25:17.393Z,102214.75
2018-12-11T06:27:45.842Z,102208.50
2018-12-11T06:30:13.610Z,102214.88
2018-12-11T06:32:41.368Z,102210.34
2018-12-11T06:35:09.169Z,102213.11
2018-12-11T06:37:36.889Z,102216.13
2018-12-11T06:40:05.333Z,102214.97
2018-12-11T06:42:33.113Z,102220.66
2018-12-11T06:45:00.887Z,102216.74
2018-12-11T06:47:28.657Z,102218.61
2018-12-11T06:49:56.365Z,102211.58
2018-12-11T06:52:24.128Z,102206.51
2018-12-11T06:54:51.835Z,102214.20
2018-12-11T06:57:19.616Z,102209.87
2018-12-11T06:59:47.384Z,102217.80
2018-12-11T07:02:15.147Z,102216.80
2018-12-11T07:04:43.040Z,102223.36
2018-12-11T07:07:10.855Z,102223.55
2018-12-11T07:09:38.653Z,102218.80
2018-12-11T07:12:06.417Z,102228.59
2018-12-11T07:14:35.477Z,102221.22
2018-12-11T07:17:03.332Z,102230.23
2018-12-11T07:19:31.204Z,102223.36
2018-12-11T07:21:59.992Z,102226.26
2018-12-11T07:24:27.778Z,102235.72
2018-12-11T07:26:55.539Z,102232.23
2018-12-11T07:29:23.351Z,102243.09
2018-12-11T07:31:51.093Z,102246.80
2018-12-11T07:34:19.337Z,102240.76
2018-12-11T07:36:47.184Z,102224.67
2018-12-11T07:39:15.231Z,102231.61
2018-12-11T07:41:43.117Z,102229.36
2018-12-11T07:44:10.880Z,102237.89
2018-12-11T07:46:38.622Z,102241.19
2018-12-11T07:49:06.364Z,102237.32
2018-12-11T07:51:34.128Z,102236.30
2018-12-11T07:54:01.850Z,102243.33
2018-12-11T07:56:29.575Z,102245.66
2018-12-11T07:58:57.364Z,102248.27
2018-12-11T08:01:25.089Z,102247.78
2018-12-11T08:03:52.840Z,102246.13
2018-12-11T08:06:20.590Z,102249.30
2018-12-11T08:08:48.413Z,102247.80
2018-12-11T08:11:16.112Z,102249.71
2018-12-11T08:13:43.835Z,102245.86
2018-12-11T08:16:11.940Z,102240.34
2018-12-11T08:18:39.796Z,102244.05
2018-12-11T08:21:07.540Z,102245.73
2018-12-11T08:23:35.302Z,102245.23
2018-12-11T08:26:03.114Z,102252.27
2018-12-11T08:28:30.908Z,102246.63
2018-12-11T08:30:58.659Z,102243.33
2018-12-11T08:33:26.420Z,102250.89
2018-12-11T08:35:54.171Z,102254.67
2018-12-11T08:38:21.997Z,102253.83
2018-12-11T08:40:49.817Z,102260.45
2018-12-11T08:43:17.608Z,102263.33
2018-12-11T08:45:47.495Z,102260.86
2018-12-11T08:48:15.249Z,102261.17
2018-12-11T08:50:43.032Z,102262.16
2018-12-11T08:53:10.824Z,102270.19
2018-12-11T08:55:38.637Z,102262.27
2018-12-11T08:58:06.360Z,102271.55
2018-12-11T09:00:34.126Z,102270.00
2018-12-11T09:03:01.949Z,102272.86
2018-12-11T09:05:29.734Z,102274.87
2018-12-11T09:07:57.493Z,102274.66
2018-12-11T09:10:25.248Z,102280.58
2018-12-11T09:12:53.019Z,102284.43
2018-12-11T09:15:20.770Z,102289.38
2018-12-11T09:17:48.623Z,102295.55
2018-12-11T09:20:16.366Z,102291.23
2018-12-11T09:22:44.136Z,102291.27
2018-12-11T09:25:11.983Z,102292.38
2018-12-11T09:27:39.825Z,102299.20
2018-12-11T09:30:08.541Z,102301.05
2018-12-11T09:32:36.355Z,102310.82
2018-12-11T09:35:04.797Z,102306.61
2018-12-11T09:37:32.537Z,102310.16
2018-12-11T09:40:00.330Z,102310.49
2018-12-11T09:42:28.202Z,102317.73
2018-12-11T09:44:55.997Z,102314.01
2018-12-11T09:47:23.736Z,102315.84
2018-12-11T09:49:51.524Z,102317.03
2018-12-11T09:52:19.281Z,102322.07
2018-12-11T09:54:47.088Z,102317.94
2018-12-11T09:57:14.867Z,102316.83
2018-12-11T09:59:42.624Z,102312.33
2018-12-11T10:02:10.424Z,102318.30
2018-12-11T10:04:38.173Z,102330.78
2018-12-11T10:07:05.977Z,102334.70
2018-12-11T10:09:33.732Z,102331.39
2018-12-11T10:12:01.500Z,102328.89
2018-12-11T10:14:29.323Z,102331.02
2018-12-11T10:16:57.124Z,102332.20
2018-12-11T10:19:24.866Z,102333.22
2018-12-11T10:21:52.654Z,102333.02
2018-12-11T10:24:24.027Z,102339.08
2018-12-11T10:26:52.566Z,102342.27
2018-12-11T10:29:20.353Z,102345.30
2018-12-11T10:31:48.154Z,102340.15
2018-12-11T10:34:15.966Z,102342.68
2018-12-11T10:36:43.830Z,102343.30
2018-12-11T10:39:12.296Z,102341.49
2018-12-11T10:41:40.071Z,102347.45
2018-12-11T10:44:07.857Z,102345.36
2018-12-11T10:46:35.657Z,102342.47
2018-12-11T10:49:03.397Z,102341.24
2018-12-11T10:51:31.105Z,102342.45
2018-12-11T10:53:58.867Z,102343.14
2018-12-11T10:56:26.729Z,102341.75
2018-12-11T10:58:54.529Z,102341.66
2018-12-11T11:01:26.624Z,102339.66
2018-12-11T11:03:54.502Z,102342.88
2018-12-11T11:06:22.324Z,102334.23
2018-12-11T11:08:50.267Z,102342.91
2018-12-11T11:11:18.711Z,102345.01
2018-12-11T11:13:46.565Z,102338.98
2018-12-11T11:16:14.782Z,102354.44
2018-12-11T11:18:44.367Z,102341.59
2018-12-11T11:21:12.367Z,102348.37
2018-12-11T11:23:40.378Z,102349.39
2018-12-11T11:26:08.115Z,102345.75
2018-12-11T11:28:35.934Z,102351.11
2018-12-11T11:31:03.721Z,102347.99
2018-12-11T11:33:31.538Z,102342.89
2018-12-11T11:35:59.334Z,102348.27
2018-12-11T11:38:27.146Z,102341.11
2018-12-11T11:40:54.904Z,102341.24
2018-12-11T11:43:22.656Z,102341.74
2018-12-11T11:45:50.423Z,102341.84
2018-12-11T11:48:18.184Z,102344.05
2018-12-11T11:50:46.008Z,102349.81
2018-12-11T11:53:14.036Z,102343.75
2018-12-11T11:55:41.934Z,102348.39
2018-12-11T11:58:09.672Z,102350.09
2018-12-11T12:00:37.449Z,102335.37
2018-12-11T12:03:05.256Z,102342.64
2018-12-11T12:05:33.105Z,102342.94
2018-12-11T12:08:00.872Z,102342.75
2018-12-11T12:10:28.681Z,102346.89
2018-12-11T12:12:56.436Z,102341.14
2018-12-11T12:15:24.249Z,102344.87
2018-12-11T12:17:51.977Z,102344.37
2018-12-11T12:20:20.049Z,102344.17
2018-12-11T12:22:47.830Z,102342.34
2018-12-11T12:25:15.608Z,102334.06
2018-12-11T12:27:43.386Z,102334.99
2018-12-11T12:30:11.204Z,102337.89
2018-12-11T12:32:38.992Z,102333.69
2018-12-11T12:35:07.199Z,102335.27
2018-12-11T12:37:34.958Z,102337.59
2018-12-11T12:40:02.813Z,102329.42
2018-12-11T12:42:30.575Z,102335.27
2018-12-11T12:44:58.375Z,102339.51
2018-12-11T12:47:26.157Z,102343.14
2018-12-11T12:49:53.937Z,102339.91
2018-12-11T12:52:21.693Z,102337.78
2018-12-11T12:54:49.469Z,102334.58
2018-12-11T12:57:17.216Z,102335.68
2018-12-11T12:59:45.110Z,102343.36
2018-12-11T13:02:12.879Z,102341.33
2018-12-11T13:04:40.661Z,102342.63
2018-12-11T13:07:08.404Z,102342.84
2018-12-11T13:09:36.140Z,102342.84
2018-12-11T13:12:04.027Z,102348.80
2018-12-11T13:14:31.764Z,102349.38
2018-12-11T13:16:59.571Z,102339.91
2018-12-11T13:19:27.349Z,102349.39
2018-12-11T13:21:55.139Z,102346.66
2018-12-11T13:24:22.934Z,102351.11
2018-12-11T13:26:50.834Z,102347.78
2018-12-11T13:29:18.625Z,102348.59
2018-12-11T13:31:46.378Z,102355.13
2018-12-11T13:34:14.151Z,102355.23
2018-12-11T13:36:41.928Z,102352.71
2018-12-11T13:39:09.816Z,102350.91
2018-12-11T13:41:37.623Z,102352.63
2018-12-11T13:44:05.649Z,102359.38
2018-12-11T13:46:33.993Z,102351.00
2018-12-11T13:49:01.902Z,102355.14
2018-12-11T13:51:29.613Z,102356.75
2018-12-11T13:53:58.197Z,102349.30
2018-12-11T13:56:25.968Z,102354.94
2018-12-11T13:58:53.736Z,102352.72
2018-12-11T14:01:21.516Z,102358.16
2018-12-11T14:03:49.248Z,102353.34
2018-12-11T14:06:17.015Z,102360.61
2018-12-11T14:08:44.847Z,102363.13
2018-12-11T14:11:12.613Z,102361.30
2018-12-11T14:13:41.035Z,102363.92
2018-12-11T14:16:08.841Z,102371.49
2018-12-11T14:18:37.592Z,102369.48
2018-12-11T14:21:05.534Z,102371.08
2018-12-11T14:23:33.357Z,102366.75
2018-12-11T14:26:01.175Z,102369.06
2018-12-11T14:28:28.908Z,102362.80
2018-12-11T14:30:56.796Z,102363.31
2018-12-11T14:33:24.554Z,102369.88
2018-12-11T14:35:52.301Z,102364.02
2018-12-11T14:38:20.653Z,102365.33
2018-12-11T14:40:49.596Z,102368.38
2018-12-11T14:43:17.407Z,102359.28
2018-12-11T14:45:45.247Z,102359.19
2018-12-11T14:48:13.002Z,102363.48
2018-12-11T14:50:40.775Z,102355.79
2018-12-11T14:53:08.574Z,102362.25
2018-12-11T14:55:36.362Z,102357.70
2018-12-11T14:58:04.172Z,102362.73
2018-12-11T15:00:31.925Z,102366.45
2018-12-11T15:03:01.319Z,102358.95
2018-12-11T15:05:29.251Z,102358.38
2018-12-11T15:07:57.005Z,102366.13
2018-12-11T15:10:25.050Z,102371.66
2018-12-11T15:12:53.061Z,102372.84
2018-12-11T15:15:20.916Z,102377.59
2018-12-11T15:17:48.782Z,102374.23
2018-12-11T15:20:16.524Z,102372.11
2018-12-11T15:22:44.316Z,102372.27
2018-12-11T15:25:12.168Z,102376.18
2018-12-11T15:27:40.043Z,102366.58
2018-12-11T15:30:08.157Z,102377.38
2018-12-11T15:32:35.937Z,102378.28
2018-12-11T15:35:03.921Z,102375.05
2018-12-11T15:37:31.654Z,102379.50
2018-12-11T15:39:59.459Z,102382.44
2018-12-11T15:42:27.282Z,102382.25
2018-12-11T15:44:55.013Z,102383.49
2018-12-11T15:47:22.794Z,102385.83
2018-12-11T15:49:50.610Z,102392.44
2018-12-11T15:52:18.404Z,102388.94
2018-12-11T15:54:46.932Z,102388.74
2018-12-11T15:57:14.705Z,102396.05
2018-12-11T15:59:42.442Z,102399.47
2018-12-11T16:02:10.205Z,102401.34
2018-12-11T16:04:37.974Z,102403.75
2018-12-11T16:07:05.802Z,102399.47
2018-12-11T16:09:36.778Z,102405.54
2018-12-11T16:12:05.444Z,102414.63
2018-12-11T16:14:33.353Z,102409.94
2018-12-11T16:17:01.177Z,102407.54
2018-12-11T16:19:30.462Z,102409.19
2018-12-11T16:21:58.603Z,102407.28
2018-12-11T16:24:26.369Z,102408.59
2018-12-11T16:26:54.144Z,102407.20
2018-12-11T16:29:22.147Z,102410.91
2018-12-11T16:31:50.789Z,102415.80
2018-12-11T16:34:18.588Z,102412.44
2018-12-11T16:36:46.494Z,102413.37
2018-12-11T16:39:14.237Z,102416.83
2018-12-11T16:41:42.973Z,102414.09
2018-12-11T16:44:10.753Z,102411.84
2018-12-11T16:46:38.546Z,102421.71
2018-12-11T16:49:06.260Z,102418.20
2018-12-11T16:51:34.934Z,102420.69
2018-12-11T16:54:02.840Z,102423.98
2018-12-11T16:56:31.053Z,102427.01
2018-12-11T16:58:58.772Z,102435.57
2018-12-11T17:01:26.845Z,102424.39
2018-12-11T17:03:54.737Z,102434.05
2018-12-11T17:06:22.536Z,102433.30
2018-12-11T17:08:50.384Z,102433.23
2018-12-11T17:11:18.109Z,102442.30
2018-12-11T17:13:45.891Z,102437.50
2018-12-11T17:16:13.845Z,102438.00
2018-12-11T17:18:41.758Z,102440.30
2018-12-11T17:21:09.688Z,102442.73
2018-12-11T17:23:37.452Z,102445.84
2018-12-11T17:26:05.222Z,102440.39
2018-12-11T17:28:32.977Z,102437.64
2018-12-11T17:31:00.767Z,102448.59
2018-12-11T17:33:28.557Z,102450.66
2018-12-11T17:35:56.247Z,102452.04
2018-12-11T17:38:23.977Z,102464.36
2018-12-11T17:40:51.806Z,102463.87
2018-12-11T17:43:19.541Z,102464.09
2018-12-11T17:45:47.317Z,102475.53
2018-12-11T17:48:15.532Z,102468.31
2018-12-11T17:50:44.304Z,102474.88
2018-12-11T17:53:12.105Z,102478.99
2018-12-11T17:55:39.862Z,102473.58
2018-12-11T17:58:07.603Z,102473.17
2018-12-11T18:00:35.419Z,102477.51
2018-12-11T18:03:03.521Z,102466.22
2018-12-11T18:05:31.254Z,102473.87
2018-12-11T18:07:59.317Z,102474.14
2018-12-11T18:10:27.081Z,102476.81
2018-12-11T18:12:54.845Z,102477.80
2018-12-11T18:15:22.670Z,102479.64
2018-12-11T18:17:50.462Z,102477.38
2018-12-11T18:20:18.229Z,102470.97
2018-12-11T18:22:46.027Z,102471.80
2018-12-11T18:25:13.901Z,102480.06
2018-12-11T18:27:41.669Z,102473.20
2018-12-11T18:30:09.469Z,102481.45
2018-12-11T18:32:37.209Z,102477.13
2018-12-11T18:35:05.943Z,102480.42
2018-12-11T18:37:33.729Z,102480.97
2018-12-11T18:40:01.565Z,102482.33
2018-12-11T18:42:29.328Z,102487.91
2018-12-11T18:45:03.057Z,102492.20
2018-12-11T18:47:26.935Z,102491.71
2018-12-11T18:49:54.698Z,102496.88
2018-12-11T18:52:22.420Z,102495.50
2018-12-11T18:54:50.124Z,102497.30
2018-12-11T18:57:17.824Z,102496.93
2018-12-11T18:59:45.614Z,102493.64
2018-12-11T19:02:13.343Z,102503.07
2018-12-11T19:04:41.257Z,102508.30
2018-12-11T19:07:08.988Z,102515.63
2018-12-11T19:09:36.749Z,102518.10
2018-12-11T19:12:04.514Z,102514.98
2018-12-11T19:14:32.320Z,102517.48
2018-12-11T19:17:00.145Z,102517.01
2018-12-11T19:19:27.904Z,102513.77
2018-12-11T19:21:55.710Z,102512.98
2018-12-11T19:24:36.077Z,102518.25
2018-12-11T19:27:03.836Z,102512.86
2018-12-11T19:29:31.653Z,102502.05
2018-12-11T19:32:00.055Z,102506.61
2018-12-11T19:34:27.867Z,102514.93
2018-12-11T19:36:55.705Z,102512.93
2018-12-11T19:39:24.053Z,102517.48
2018-12-11T19:41:51.830Z,102511.70
2018-12-11T19:44:19.614Z,102518.53
2018-12-11T19:46:47.404Z,102518.92
2018-12-11T19:49:15.162Z,102516.10
2018-12-11T19:51:42.916Z,102525.02
2018-12-11T19:54:10.644Z,102514.94
2018-12-11T19:56:38.479Z,102513.92
2018-12-11T19:59:06.501Z,102510.12
2018-12-11T20:01:34.693Z,102506.11
2018-12-11T20:04:02.528Z,102515.20
2018-12-11T20:06:30.252Z,102512.46
2018-12-11T20:08:58.001Z,102513.55
2018-12-11T20:11:26.096Z,102518.66
2018-12-11T20:13:54.013Z,102523.47
2018-12-11T20:16:21.704Z,102525.05
2018-12-11T20:18:50.093Z,102520.78
2018-12-11T20:21:18.780Z,102521.00
2018-12-11T20:23:46.500Z,102529.34
2018-12-11T20:26:14.244Z,102530.63
2018-12-11T20:28:43.045Z,102536.83
2018-12-11T20:31:10.767Z,102542.13
2018-12-11T20:33:38.691Z,102550.54
2018-12-11T20:36:06.456Z,102549.80
2018-12-11T20:38:34.188Z,102554.00
2018-12-11T20:41:01.954Z,102545.70
2018-12-11T20:43:30.210Z,102537.47
2018-12-11T20:45:58.088Z,102544.05
2018-12-11T20:48:25.999Z,102544.80
2018-12-11T20:50:53.825Z,102540.33
2018-12-11T20:53:21.552Z,102543.16
2018-12-11T20:55:49.603Z,102544.91
2018-12-11T20:58:17.329Z,102548.15
2018-12-11T21:00:45.122Z,102544.34
2018-12-11T21:03:12.933Z,102544.84
2018-12-11T21:05:40.648Z,102550.98
2018-12-11T21:08:08.409Z,102547.74
2018-12-11T21:10:36.173Z,102552.20
2018-12-11T21:13:04.256Z,102551.80
2018-12-11T21:15:32.037Z,102555.72
2018-12-11T21:17:59.794Z,102551.17
2018-12-11T21:20:27.641Z,102549.64
2018-12-11T21:22:55.412Z,102548.61
2018-12-11T21:25:23.119Z,102544.19
2018-12-11T21:27:50.856Z,102543.38
2018-12-11T21:30:19.660Z,102549.11
2018-12-11T21:32:47.955Z,102541.38
2018-12-11T21:35:15.724Z,102549.64
2018-12-11T21:37:43.424Z,102541.26
2018-12-11T21:40:11.164Z,102539.05
2018-12-11T21:42:38.886Z,102535.30
2018-12-11T21:45:06.878Z,102541.72
2018-12-11T21:47:35.275Z,102541.91
2018-12-11T21:50:04.021Z,102546.52
2018-12-11T21:52:31.810Z,102546.80
2018-12-11T21:54:59.582Z,102552.22
2018-12-11T21:57:27.318Z,102552.77
2018-12-11T21:59:55.086Z,102548.90
2018-12-11T22:02:22.850Z,102551.30
2018-12-11T22:04:50.629Z,102554.59
2018-12-11T22:07:18.388Z,102557.26
2018-12-11T22:09:48.781Z,102559.12
2018-12-11T22:12:17.080Z,102559.52
2018-12-11T22:14:45.478Z,102558.48
2018-12-11T22:17:13.261Z,102555.74
2018-12-11T22:19:40.975Z,102560.88
2018-12-11T22:22:08.712Z,102563.37
2018-12-11T22:24:36.444Z,102560.66
2018-12-11T22:27:04.334Z,102562.73
2018-12-11T22:29:32.055Z,102565.53
2018-12-11T22:31:59.824Z,102564.90
2018-12-11T22:34:27.585Z,102570.67
2018-12-11T22:36:55.334Z,102573.84
2018-12-11T22:39:23.815Z,102574.69
2018-12-11T22:41:51.721Z,102571.31
2018-12-11T22:44:19.458Z,102572.92
2018-12-11T22:46:47.213Z,102577.11
2018-12-11T22:49:14.891Z,102582.61
2018-12-11T22:51:43.065Z,102577.16
2018-12-11T22:54:11.281Z,102580.94
2018-12-11T22:56:39.040Z,102575.89
2018-12-11T22:59:06.777Z,102585.98
2018-12-11T23:01:35.432Z,102581.69
2018-12-11T23:04:03.273Z,102583.94
2018-12-11T23:06:30.988Z,102591.27
2018-12-11T23:08:59.426Z,102593.75
2018-12-11T23:11:27.173Z,102593.59
2018-12-11T23:13:54.878Z,102597.23
2018-12-11T23:16:22.523Z,102595.30
2018-12-11T23:18:50.194Z,102599.24
2018-12-11T23:21:17.859Z,102596.77
2018-12-11T23:23:45.782Z,102605.53
2018-12-11T23:26:14.367Z,102612.47
2018-12-11T23:28:42.758Z,102607.91
2018-12-11T23:31:11.374Z,102606.50
2018-12-11T23:33:39.075Z,102604.15
2018-12-11T23:36:06.753Z,102604.41
2018-12-11T23:38:34.403Z,102602.73
2018-12-11T23:41:02.095Z,102607.81
2018-12-11T23:43:29.783Z,102607.17
2018-12-11T23:45:57.502Z,102609.11
2018-12-11T23:48:25.148Z,102615.66
2018-12-11T23:50:52.793Z,102615.31
2018-12-11T23:53:20.471Z,102620.02
2018-12-11T23:55:48.186Z,102624.59
2018-12-11T23:58:15.845Z,102628.25
